Main page
METAR-TAF:

METAR-TAF

Airports :

King Fahd International Airport

Dammam, Saudi Arabia

latitude: 26-28N, longitude: 049-47E, elevation: 22 m

Current weather observation

The report was made 12 minutes ago, at 21:00 UTC
Wind 4 kt from the West
Temperature 16°C
Humidity 63%
Pressure 1018 hPa
Visibility 10 km or more
no clouds below 1500 m and no cumulonimbus

METAR: OEDF 212100Z 28004KT CAVOK 16/09 Q1018 NOSIG

Time: 00:12 (21:12 UTC)

Forecast

The report was made 5 hours and 12 minutes ago, at 16:00 UTC
Forecast valid from 21 at 18 UTC to 22 at 24 UTC
Wind 10 kt from the North/Northwest
Visibility 10 km or more
no clouds below 1500 m and no cumulonimbus
Becoming
from 22 at 08 UTC to 22 at 10 UTC
Wind 10 kt from the North/Northeast
Becoming
from 22 at 16 UTC to 22 at 18 UTC
Wind 3 kt from variable directions

TAF: OEDF 211600Z 2118/2224 33010KT CAVOK BECMG 2208/2210 03010KT BECMG 2216/2218 VRB03KT

Weather observations and forecasts of more than 4000 airports (METAR and TAF reports).

The available stations are represented by yellow and red dots on the map.

Hover mouse over dot to see the name of the station.

Then click to see weather observations and forecasts.

To change the map : click on the green buttons with a black cross to zoom in, on the green button with a dash to zoom out, or on the green arrows for adjacent maps.


METAR-TAF: